Un Karadeniz — TCTD3 — position and weather

sailwx.info

Track history (hours):
 
Tides and Currents Weather Stations Pressure Air Temp Water Temp Dewpoint Dewpoint Depression Visibility Wind Speed Wind Dir Waves Ship Positions

Un Karadeniz

Last reported at 2014-Sep-21 05:33 UTC. Time now 2014-Sep-21 06:11 UTC.
Position N 40°51' E 029°15'.

Length 193 m; draft 7 m.

Type: Ship (hazmat cat A). MMSI: 271002571.

Date/timePositionNaut miles runAvg speedWind from/ knotsBaromVisibWave heightAir tempDewpointWater temp
2014-Sep-21 05:33N 40°51' E 029°15'4 4.3
2014-Sep-21 04:33N 40°50' E 029°10'1616.3
2014-Sep-21 03:33N 40°51' E 028°48'26912.7
2014-Sep-20 06:17N 37°48' E 024°33'1418.8
2014-Sep-20 05:33N 37°36' E 024°25'1918.5
2014-Sep-20 04:33N 37°21' E 024°10'2518.6
2014-Sep-20 03:13N 37°02' E 023°50'1618.5
2014-Sep-20 02:22N 36°50' E 023°37'47516.9
2014-Sep-18 22:19N 39°15' E 014°03'1418.6
2014-Sep-18 21:34N 39°22' E 013°47'1918.5
2014-Sep-18 20:33N 39°31' E 013°26'36818.3
2014-Sep-18 00:26N 42°39' E 006°27'1617.4
2014-Sep-17 23:33N 42°48' E 006°10'1616.6
2014-Sep-17 22:33N 43°02' E 005°58'6 5.5
2014-Sep-17 21:31N 43°06' E 005°54'0 0.0
2014-Sep-17 11:11N 43°06' E 005°54'0 0.0
2014-Sep-17 09:22N 43°06' E 005°54'3 3.9
2014-Sep-17 08:33N 43°05' E 005°58'1717.6
2014-Sep-17 07:33N 42°50' E 006°09'87917.9
2014-Sep-15 06:27N 36°37' E 023°24'1819.7
2014-Sep-15 05:34N 36°50' E 023°38'2219.8
2014-Sep-15 04:27N 37°07' E 023°56'1719.5
2014-Sep-15 03:33N 37°21' E 024°10'1919.5
2014-Sep-15 02:34N 37°36' E 024°25'1919.3
2014-Sep-15 01:34N 37°53' E 024°35'2419.1
2014-Sep-15 00:19N 38°14' E 024°49'5619.6
2014-Sep-14 21:27N 39°04' E 025°22'1719.1
2014-Sep-14 20:34N 39°19' E 025°33'1919.4
2014-Sep-14 19:34N 39°37' E 025°42'14217.3
2014-Sep-14 11:23N 40°50' E 028°20'1619.0
2014-Sep-14 10:33N 40°52' E 028°41'1918.9
2014-Sep-14 09:33N 40°50' E 029°06'8 7.8
2014-Sep-14 08:31N 40°51' E 029°16'0 0.0
2014-Sep-14 07:28N 40°51' E 029°16'0 0.0
2014-Sep-14 06:33N 40°51' E 029°16'0 0.0
2014-Sep-14 05:33N 40°51' E 029°16'0 0.0
2014-Sep-14 04:32N 40°51' E 029°16'0 0.0
2014-Sep-14 03:32N 40°51' E 029°16'0 0.0
2014-Sep-14 02:31N 40°51' E 029°16'0 0.0
2014-Sep-14 01:31N 40°51' E 029°16'0 0.0
2014-Sep-13 21:32N 40°51' E 029°16'0 0.0
2014-Sep-13 20:11N 40°51' E 029°16'0 0.0
2014-Sep-13 19:28N 40°51' E 029°16'0 0.0
2014-Sep-13 18:22N 40°51' E 029°16'0 0.0
2014-Sep-13 17:28N 40°51' E 029°16'0 0.0
2014-Sep-13 16:27N 40°51' E 029°16'2 1.7
2014-Sep-13 15:33N 40°51' E 029°14'1818.0
2014-Sep-13 14:33N 40°50' E 028°51'17416.6
2014-Sep-13 04:04N 39°22' E 025°34'1019.2
2014-Sep-13 03:33N 39°14' E 025°28'1919.1
2014-Sep-13 02:33N 38°56' E 025°17'3819.2
2014-Sep-13 00:33N 38°22' E 024°55'3919.5
2014-Sep-12 22:33N 37°48' E 024°32'2219.1
2014-Sep-12 21:24N 37°29' E 024°18'1619.2
2014-Sep-12 20:33N 37°16' E 024°04'1919.2
2014-Sep-12 19:33N 37°01' E 023°49'1919.1
2014-Sep-12 18:33N 36°47' E 023°34'2219.0
2014-Sep-12 17:24N 36°29' E 023°18'1517.5
2014-Sep-12 16:31N 36°24' E 022°59'2419.4
2014-Sep-12 15:17N 36°21' E 022°30'45318.3
2014-Sep-11 14:33N 39°23' E 013°44'  
Track history (hours):
 
Tides and Currents Weather Stations Pressure Air Temp Water Temp Dewpoint Dewpoint Depression Visibility Wind Speed Wind Dir Waves Ship Positions

Un Karadeniz

Last reported at 2014-Sep-21 05:33 UTC. Time now 2014-Sep-21 06:11 UTC.
Position N 40°51' E 029°15'.

Length 193 m; draft 7 m.

Type: Ship (hazmat cat A). MMSI: 271002571.

Date/timePositionNaut miles runAvg speedWind from/ knotsBaromVisibWave heightAir tempDewpointWater temp
2014-Sep-21 05:33N 40°51' E 029°15'4 4.3
2014-Sep-21 04:33N 40°50' E 029°10'1616.3
2014-Sep-21 03:33N 40°51' E 028°48'26912.7
2014-Sep-20 06:17N 37°48' E 024°33'1418.8
2014-Sep-20 05:33N 37°36' E 024°25'1918.5
2014-Sep-20 04:33N 37°21' E 024°10'2518.6
2014-Sep-20 03:13N 37°02' E 023°50'1618.5
2014-Sep-20 02:22N 36°50' E 023°37'47516.9
2014-Sep-18 22:19N 39°15' E 014°03'1418.6
2014-Sep-18 21:34N 39°22' E 013°47'1918.5
2014-Sep-18 20:33N 39°31' E 013°26'36818.3
2014-Sep-18 00:26N 42°39' E 006°27'1617.4
2014-Sep-17 23:33N 42°48' E 006°10'1616.6
2014-Sep-17 22:33N 43°02' E 005°58'6 5.5
2014-Sep-17 21:31N 43°06' E 005°54'0 0.0
2014-Sep-17 11:11N 43°06' E 005°54'0 0.0
2014-Sep-17 09:22N 43°06' E 005°54'3 3.9
2014-Sep-17 08:33N 43°05' E 005°58'1717.6
2014-Sep-17 07:33N 42°50' E 006°09'87917.9
2014-Sep-15 06:27N 36°37' E 023°24'1819.7
2014-Sep-15 05:34N 36°50' E 023°38'2219.8
2014-Sep-15 04:27N 37°07' E 023°56'1719.5
2014-Sep-15 03:33N 37°21' E 024°10'1919.5
2014-Sep-15 02:34N 37°36' E 024°25'1919.3
2014-Sep-15 01:34N 37°53' E 024°35'2419.1
2014-Sep-15 00:19N 38°14' E 024°49'5619.6
2014-Sep-14 21:27N 39°04' E 025°22'1719.1
2014-Sep-14 20:34N 39°19' E 025°33'1919.4
2014-Sep-14 19:34N 39°37' E 025°42'14217.3
2014-Sep-14 11:23N 40°50' E 028°20'1619.0
2014-Sep-14 10:33N 40°52' E 028°41'1918.9
2014-Sep-14 09:33N 40°50' E 029°06'8 7.8
2014-Sep-14 08:31N 40°51' E 029°16'0 0.0
2014-Sep-14 07:28N 40°51' E 029°16'0 0.0
2014-Sep-14 06:33N 40°51' E 029°16'0 0.0
2014-Sep-14 05:33N 40°51' E 029°16'0 0.0
2014-Sep-14 04:32N 40°51' E 029°16'0 0.0
2014-Sep-14 03:32N 40°51' E 029°16'0 0.0
2014-Sep-14 02:31N 40°51' E 029°16'0 0.0
2014-Sep-14 01:31N 40°51' E 029°16'0 0.0
2014-Sep-13 21:32N 40°51' E 029°16'0 0.0
2014-Sep-13 20:11N 40°51' E 029°16'0 0.0
2014-Sep-13 19:28N 40°51' E 029°16'0 0.0
2014-Sep-13 18:22N 40°51' E 029°16'0 0.0
2014-Sep-13 17:28N 40°51' E 029°16'0 0.0
2014-Sep-13 16:27N 40°51' E 029°16'2 1.7
2014-Sep-13 15:33N 40°51' E 029°14'1818.0
2014-Sep-13 14:33N 40°50' E 028°51'17416.6
2014-Sep-13 04:04N 39°22' E 025°34'1019.2
2014-Sep-13 03:33N 39°14' E 025°28'1919.1
2014-Sep-13 02:33N 38°56' E 025°17'3819.2
2014-Sep-13 00:33N 38°22' E 024°55'3919.5
2014-Sep-12 22:33N 37°48' E 024°32'2219.1
2014-Sep-12 21:24N 37°29' E 024°18'1619.2
2014-Sep-12 20:33N 37°16' E 024°04'1919.2
2014-Sep-12 19:33N 37°01' E 023°49'1919.1
2014-Sep-12 18:33N 36°47' E 023°34'2219.0
2014-Sep-12 17:24N 36°29' E 023°18'1517.5
2014-Sep-12 16:31N 36°24' E 022°59'2419.4
2014-Sep-12 15:17N 36°21' E 022°30'45318.3
2014-Sep-11 14:33N 39°23' E 013°44'  

Dump ship's entire track history